Time;durP1;ratioP1;P1;durP2;ratioP2;P2;SDS_P1;SDS_P2;PMS_P1;PMS_P2;Temp;Humidity;BMP_temperature;BMP_pressure;BME280_temperature;BME280_humidity;BME280_pressure;Samples;Min_cycle;Max_cycle;Signal;HPM_P1;HPM_P2
2023/09/16 00:00:43;;;;;;;5.78;3.75;;;;;;;;;;5047012;28;20124;-65
2023/09/16 00:03:10;;;;;;;5.72;3.70;;;23.00;80.40;;;;;;5054659;28;20048;-66
2023/09/16 00:05:39;;;;;;;5.32;3.45;;;22.90;82.20;;;;;;5020030;28;20383;-66
2023/09/16 00:08:05;;;;;;;5.70;3.72;;;23.00;85.60;;;;;;5052274;28;20052;-66
2023/09/16 00:10:34;;;;;;;5.55;3.50;;;23.00;83.10;;;;;;5040216;28;20426;-65
2023/09/16 00:13:00;;;;;;;5.57;3.53;;;22.80;85.50;;;;;;5028869;28;20033;-66
2023/09/16 00:15:27;;;;;;;6.70;4.10;;;22.90;84.70;;;;;;5019968;28;20061;-65
2023/09/16 00:17:54;;;;;;;6.00;3.70;;;;;;;;;;5057110;28;20045;-66
2023/09/16 00:20:21;;;;;;;7.47;3.70;;;22.90;85.20;;;;;;5040077;28;20056;-65
2023/09/16 00:22:54;;;;;;;7.10;3.40;;;23.00;82.30;;;;;;5039354;28;20041;-65
2023/09/16 00:25:23;;;;;;;6.13;3.33;;;23.20;85.90;;;;;;5049758;28;20087;-65
2023/09/16 00:27:54;;;;;;;5.97;3.83;;;25.10;82.30;;;;;;5027775;28;20059;-65
2023/09/16 00:30:22;;;;;;;5.35;3.60;;;22.90;82.50;;;;;;5021744;28;20126;-66
2023/09/16 00:32:48;;;;;;;7.38;4.05;;;22.90;82.50;;;;;;5023326;28;20049;-66
2023/09/16 00:35:14;;;;;;;5.78;3.65;;;22.70;82.40;;;;;;5052572;28;20094;-66
2023/09/16 00:37:43;;;;;;;5.63;3.20;;;22.90;82.50;;;;;;5053899;28;20437;-66
2023/09/16 00:40:12;;;;;;;5.18;3.40;;;24.60;83.30;;;;;;5055482;28;20099;-65
2023/09/16 00:42:38;;;;;;;5.35;3.50;;;;;;;;;;5040644;28;20079;-66
2023/09/16 00:45:12;;;;;;;6.05;3.60;;;23.00;80.70;;;;;;5068283;28;20057;-65
2023/09/16 00:47:42;;;;;;;5.40;3.30;;;23.10;85.00;;;;;;5036495;28;20048;-66
2023/09/16 00:50:12;;;;;;;5.30;3.60;;;23.00;81.30;;;;;;5049191;28;20049;-65
2023/09/16 00:52:52;;;;;;;6.18;3.15;;;22.90;81.30;;;;;;5020981;28;20071;-65
2023/09/16 00:55:19;;;;;;;5.93;3.38;;;23.10;81.40;;;;;;5055743;28;20584;-65
2023/09/16 00:57:47;;;;;;;5.40;3.45;;;22.90;82.60;;;;;;5035575;28;20045;-65
2023/09/16 01:00:16;;;;;;;5.43;3.38;;;23.00;85.10;;;;;;5038578;28;20080;-65
2023/09/16 01:02:43;;;;;;;6.07;2.97;;;23.20;83.10;;;;;;5034906;28;20040;-67
2023/09/16 01:05:17;;;;;;;6.45;3.88;;;22.90;82.80;;;;;;5032626;28;20117;-66
2023/09/16 01:07:45;;;;;;;5.53;3.28;;;22.90;85.10;;;;;;5033459;28;20082;-66
2023/09/16 01:10:11;;;;;;;5.30;3.30;;;23.00;82.70;;;;;;5026784;28;20047;-66
2023/09/16 01:12:41;;;;;;;6.18;3.53;;;22.90;85.80;;;;;;5071062;28;20059;-66
2023/09/16 01:15:08;;;;;;;5.57;3.53;;;;;;;;;;5034874;28;20045;-64
2023/09/16 01:17:37;;;;;;;5.25;3.05;;;22.80;85.40;;;;;;5060433;28;20493;-66
2023/09/16 01:20:06;;;;;;;6.88;3.80;;;22.70;82.70;;;;;;5045710;28;20055;-66
2023/09/16 01:22:33;;;;;;;6.65;3.75;;;22.90;81.30;;;;;;5044102;28;20048;-65
2023/09/16 01:25:07;;;;;;;5.53;3.10;;;22.90;83.10;;;;;;5039582;28;20131;-66
2023/09/16 01:27:34;;;;;;;5.13;3.40;;;22.80;85.20;;;;;;5049904;28;20085;-66
2023/09/16 01:30:00;;;;;;;5.82;3.63;;;22.80;82.70;;;;;;5026730;28;20079;-65
2023/09/16 01:32:34;;;;;;;5.78;3.72;;;23.10;82.50;;;;;;5054336;28;20395;-65
2023/09/16 01:35:06;;;;;;;6.07;3.90;;;22.50;81.20;;;;;;5051921;28;20084;-64
2023/09/16 01:37:33;;;;;;;7.45;3.47;;;23.00;82.90;;;;;;5040565;28;20402;-65
2023/09/16 01:39:59;;;;;;;5.85;3.60;;;;;;;;;;5020077;28;20041;-67
2023/09/16 01:42:29;;;;;;;6.53;3.45;;;23.10;81.00;;;;;;5065470;28;20041;-62
2023/09/16 01:44:55;;;;;;;6.03;3.70;;;22.90;85.10;;;;;;5032884;28;20083;-63
2023/09/16 01:47:21;;;;;;;5.75;3.42;;;22.90;82.50;;;;;;5051414;28;20041;-62
2023/09/16 01:49:47;;;;;;;5.68;3.47;;;22.80;82.80;;;;;;5063821;28;20063;-62
2023/09/16 01:52:16;;;;;;;6.47;3.67;;;22.70;85.40;;;;;;5033582;28;20395;-65
2023/09/16 01:54:42;;;;;;;4.90;3.10;;;22.80;82.90;;;;;;5009953;28;20048;-66
2023/09/16 01:57:08;;;;;;;6.32;3.50;;;22.60;82.80;;;;;;5062884;28;20049;-66
2023/09/16 01:59:34;;;;;;;5.90;3.35;;;22.80;85.90;;;;;;5035037;28;20132;-66
2023/09/16 02:02:00;;;;;;;5.15;3.33;;;;;;;;;;5046131;28;20051;-65
2023/09/16 02:04:27;;;;;;;5.22;3.58;;;22.80;81.00;;;;;;5021314;28;20041;-65
2023/09/16 02:06:54;;;;;;;5.65;3.35;;;22.60;82.70;;;;;;5049836;28;20443;-65
2023/09/16 02:09:20;;;;;;;5.22;3.42;;;22.80;85.70;;;;;;5031275;28;20056;-65
2023/09/16 02:11:46;;;;;;;8.30;3.80;;;23.30;83.90;;;;;;5038282;28;20083;-65
2023/09/16 02:14:16;;;;;;;5.20;3.30;;;22.70;82.50;;;;;;5040300;28;20536;-66
2023/09/16 02:16:44;;;;;;;5.70;3.53;;;22.80;86.10;;;;;;5064465;28;20087;-63
2023/09/16 02:19:11;;;;;;;5.60;3.25;;;23.10;83.30;;;;;;5065474;28;20052;-65
2023/09/16 02:21:37;;;;;;;5.95;3.45;;;;;;;;;;5071829;28;20117;-63
2023/09/16 02:24:04;;;;;;;5.57;3.03;;;22.60;85.70;;;;;;5022798;28;20123;-65
2023/09/16 02:26:30;;;;;;;6.05;3.50;;;22.70;85.70;;;;;;5049210;28;20378;-65
2023/09/16 02:28:56;;;;;;;5.55;3.17;;;22.50;85.30;;;;;;5065914;28;20048;-66
2023/09/16 02:31:26;;;;;;;5.90;3.58;;;22.60;82.70;;;;;;5073884;28;20521;-66
2023/09/16 02:33:58;;;;;;;5.60;3.40;;;22.80;82.60;;;;;;5082339;28;20055;-65
2023/09/16 02:36:25;;;;;;;5.78;3.40;;;22.90;81.80;;;;;;5035646;28;20048;-65
2023/09/16 02:39:02;;;;;;;6.53;3.75;;;22.80;85.20;;;;;;5014442;28;20052;-65
2023/09/16 02:41:33;;;;;;;4.78;3.30;;;23.00;82.30;;;;;;5038560;28;20056;-65
2023/09/16 02:43:59;;;;;;;4.93;3.20;;;22.50;82.90;;;;;;5043439;28;20048;-65
2023/09/16 02:46:26;;;;;;;5.40;3.30;;;;;;;;;;5030654;28;20060;-62
2023/09/16 02:48:52;;;;;;;5.35;3.35;;;22.60;81.00;;;;;;5034327;28;20410;-62
2023/09/16 02:51:17;;;;;;;6.75;3.75;;;22.90;83.60;;;;;;5052278;28;20045;-62
2023/09/16 02:53:43;;;;;;;5.50;3.97;;;22.70;86.40;;;;;;5056388;28;20036;-62
2023/09/16 02:56:10;;;;;;;6.65;3.97;;;22.70;82.90;;;;;;5008478;28;20033;-62
2023/09/16 02:58:36;;;;;;;6.47;4.22;;;23.00;83.10;;;;;;5059116;28;20102;-66
2023/09/16 03:01:10;;;;;;;5.57;3.45;;;22.80;85.40;;;;;;5048600;28;20044;-62
2023/09/16 03:03:37;;;;;;;6.70;3.85;;;22.80;85.70;;;;;;5017605;28;20045;-66
2023/09/16 03:06:05;;;;;;;6.05;3.95;;;22.70;83.20;;;;;;5047184;28;20047;-64
2023/09/16 03:08:34;;;;;;;5.50;3.78;;;22.70;83.00;;;;;;5049949;28;20668;-65
2023/09/16 03:11:03;;;;;;;6.07;4.15;;;22.80;83.20;;;;;;5020893;28;20037;-66
2023/09/16 03:13:29;;;;;;;6.80;3.83;;;22.70;86.10;;;;;;5025006;28;20045;-67
2023/09/16 03:16:11;;;;;;;7.20;3.60;;;22.60;85.90;;;;;;5078669;28;20041;-66
2023/09/16 03:18:38;;;;;;;8.20;3.67;;;;;;;;;;5066063;28;20101;-66
2023/09/16 03:21:03;;;;;;;6.72;3.97;;;22.60;81.10;;;;;;5071747;28;20040;-65
2023/09/16 03:23:29;;;;;;;6.15;3.83;;;22.70;83.20;;;;;;5043783;28;20045;-66
2023/09/16 03:25:56;;;;;;;5.95;3.85;;;22.80;83.30;;;;;;5034429;28;20045;-66
2023/09/16 03:28:22;;;;;;;6.50;3.65;;;22.90;83.00;;;;;;5035697;28;20044;-66
2023/09/16 03:30:48;;;;;;;7.63;3.97;;;;;;;;;;5072116;28;20048;-66
2023/09/16 03:33:14;;;;;;;6.47;3.92;;;22.70;86.20;;;;;;5082848;28;20040;-62
2023/09/16 03:35:40;;;;;;;5.82;3.58;;;22.60;85.60;;;;;;5020107;28;20521;-62
2023/09/16 03:38:06;;;;;;;6.75;4.30;;;22.80;86.40;;;;;;5039646;28;20102;-62
2023/09/16 03:40:33;;;;;;;5.88;4.03;;;22.50;83.00;;;;;;5054041;28;20049;-62
2023/09/16 03:42:58;;;;;;;6.18;3.83;;;22.70;83.20;;;;;;5088204;28;20433;-66
2023/09/16 03:45:24;;;;;;;6.03;4.40;;;24.50;84.10;;;;;;5070855;28;20467;-65
2023/09/16 03:47:52;;;;;;;6.60;4.55;;;22.70;82.80;;;;;;5052797;28;20076;-66
2023/09/16 03:50:18;;;;;;;6.32;4.13;;;22.70;81.80;;;;;;5037617;28;20144;-66
2023/09/16 03:52:48;;;;;;;7.35;4.40;;;22.80;86.10;;;;;;5057940;28;20033;-66
2023/09/16 03:55:15;;;;;;;5.90;4.20;;;22.50;85.70;;;;;;5030374;28;20064;-66
2023/09/16 03:57:41;;;;;;;7.00;5.28;;;22.50;86.40;;;;;;5026480;28;20037;-66
2023/09/16 04:00:10;;;;;;;6.53;4.47;;;22.40;82.50;;;;;;5052854;28;20394;-62
2023/09/16 04:02:38;;;;;;;5.53;3.80;;;22.60;82.70;;;;;;5038709;28;20091;-65
2023/09/16 04:05:05;;;;;;;6.45;4.28;;;22.70;83.30;;;;;;5029805;28;20048;-66
2023/09/16 04:07:31;;;;;;;5.82;4.68;;;22.70;83.10;;;;;;5050392;28;20078;-66
2023/09/16 04:09:57;;;;;;;6.60;4.72;;;22.40;85.50;;;;;;5027042;28;20154;-67
2023/09/16 04:12:23;;;;;;;8.52;4.50;;;22.70;83.50;;;;;;5042530;28;20067;-66
2023/09/16 04:14:50;;;;;;;6.30;4.03;;;;;;;;;;5054633;28;20036;-66
2023/09/16 04:17:16;;;;;;;6.82;3.70;;;;;;;;;;5058994;28;20041;-65
2023/09/16 04:19:43;;;;;;;6.90;3.88;;;22.70;81.30;;;;;;5070971;28;20083;-66
2023/09/16 04:22:10;;;;;;;6.10;4.32;;;22.50;83.10;;;;;;5018166;28;20051;-65
2023/09/16 04:24:36;;;;;;;7.07;4.30;;;;;;;;;;5051087;28;20053;-67
2023/09/16 04:27:02;;;;;;;6.32;4.38;;;22.40;85.30;;;;;;5056757;28;20498;-63
2023/09/16 04:29:28;;;;;;;7.00;4.43;;;22.30;82.80;;;;;;5057321;28;20442;-62
2023/09/16 04:31:54;;;;;;;5.95;4.03;;;22.60;86.50;;;;;;5050303;28;20075;-66
2023/09/16 04:34:20;;;;;;;6.50;4.07;;;22.50;85.50;;;;;;5041106;28;20040;-66
2023/09/16 04:36:46;;;;;;;7.72;4.28;;;22.50;85.50;;;;;;5067234;28;20033;-67
2023/09/16 04:39:12;;;;;;;6.65;3.78;;;22.50;85.70;;;;;;5041394;28;20524;-66
2023/09/16 04:41:39;;;;;;;6.10;4.20;;;;;;;;;;5032781;28;20052;-66
2023/09/16 04:44:08;;;;;;;7.72;4.03;;;22.40;85.70;;;;;;5022883;28;20059;-66
2023/09/16 04:46:34;;;;;;;6.88;4.70;;;22.30;82.70;;;;;;5048032;28;20064;-66
2023/09/16 04:49:00;;;;;;;6.75;4.80;;;22.30;86.20;;;;;;5043091;28;20056;-66
2023/09/16 04:51:26;;;;;;;5.20;3.90;;;22.60;86.30;;;;;;5051602;28;20036;-66
2023/09/16 04:53:54;;;;;;;7.93;4.93;;;22.60;83.30;;;;;;5037465;28;20063;-66
2023/09/16 04:56:20;;;;;;;6.55;4.25;;;22.60;83.70;;;;;;5053416;28;20040;-66
2023/09/16 04:58:52;;;;;;;7.05;4.15;;;;;;;;;;5031731;28;20055;-66
2023/09/16 05:01:18;;;;;;;6.05;4.53;;;22.40;85.40;;;;;;5080067;28;20043;-66
2023/09/16 05:03:44;;;;;;;6.28;3.90;;;22.40;85.30;;;;;;5052120;28;20062;-66
2023/09/16 05:06:10;;;;;;;7.10;4.22;;;22.50;83.10;;;;;;5046746;28;20102;-65
2023/09/16 05:08:37;;;;;;;6.63;4.30;;;;;;;;;;5013632;28;20544;-62
2023/09/16 05:11:03;;;;;;;6.78;4.00;;;22.40;81.30;;;;;;5073087;28;20506;-63
2023/09/16 05:13:29;;;;;;;6.03;4.20;;;22.30;85.50;;;;;;5016878;28;20041;-63
2023/09/16 05:15:55;;;;;;;6.93;4.15;;;22.70;83.20;;;;;;5045792;28;20107;-63
2023/09/16 05:18:22;;;;;;;6.53;4.38;;;22.40;85.90;;;;;;5001631;28;20048;-65
2023/09/16 05:20:54;;;;;;;6.63;4.38;;;22.10;81.70;;;;;;5047788;28;20494;-65
2023/09/16 05:23:23;;;;;;;7.22;4.90;;;22.10;85.20;;;;;;5049420;28;20491;-65
2023/09/16 05:25:51;;;;;;;7.13;4.45;;;22.20;85.30;;;;;;5054901;28;20598;-66
2023/09/16 05:28:18;;;;;;;6.18;4.18;;;22.40;85.40;;;;;;5036640;28;20127;-65
2023/09/16 05:30:46;;;;;;;6.30;4.53;;;22.40;85.40;;;;;;5057695;28;20036;-65
2023/09/16 05:33:15;;;;;;;6.18;4.57;;;22.40;86.10;;;;;;5010040;28;20430;-66
2023/09/16 05:35:47;;;;;;;6.95;4.70;;;22.60;85.70;;;;;;5034681;28;20067;-64
2023/09/16 05:38:14;;;;;;;7.15;4.18;;;22.50;85.40;;;;;;5033091;28;20056;-65
2023/09/16 05:40:42;;;;;;;5.57;3.97;;;22.60;83.50;;;;;;5032672;28;20517;-65
2023/09/16 05:43:08;;;;;;;6.00;4.28;;;22.40;85.30;;;;;;5049929;28;20122;-64
2023/09/16 05:45:36;;;;;;;8.80;4.80;;;24.20;83.90;;;;;;5061558;28;20606;-64
2023/09/16 05:48:04;;;;;;;5.63;4.10;;;22.50;85.50;;;;;;5052726;28;20098;-65
2023/09/16 05:50:33;;;;;;;6.32;4.30;;;23.50;83.30;;;;;;5018060;28;20045;-65
2023/09/16 05:53:01;;;;;;;6.05;3.95;;;22.80;85.50;;;;;;5065788;28;20052;-66
2023/09/16 05:55:28;;;;;;;6.35;4.40;;;22.70;85.30;;;;;;5066054;28;20051;-64
2023/09/16 05:58:01;;;;;;;6.35;4.30;;;22.70;82.40;;;;;;5052299;28;20124;-65
2023/09/16 06:00:28;;;;;;;5.93;4.10;;;22.70;85.10;;;;;;5048405;28;20063;-66
2023/09/16 06:02:54;;;;;;;7.63;5.00;;;22.80;82.60;;;;;;5020456;28;20049;-67
2023/09/16 06:05:21;;;;;;;5.63;4.03;;;22.90;83.30;;;;;;5039140;28;20127;-64
2023/09/16 06:07:48;;;;;;;6.20;3.90;;;21.00;81.30;;;;;;5067628;28;20044;-64
2023/09/16 06:10:15;;;;;;;6.15;4.53;;;22.70;82.20;;;;;;5047767;28;20090;-65
2023/09/16 06:12:46;;;;;;;7.07;4.10;;;;;;;;;;5039615;28;20127;-65
2023/09/16 06:15:16;;;;;;;6.10;4.22;;;22.70;80.60;;;;;;5082545;28;20071;-65
2023/09/16 06:17:44;;;;;;;6.60;4.70;;;22.50;81.10;;;;;;5041968;28;20582;-65
2023/09/16 06:20:11;;;;;;;7.25;4.47;;;23.80;83.30;;;;;;5056291;28;20103;-65
2023/09/16 06:22:40;;;;;;;7.40;4.93;;;23.10;82.10;;;;;;5050891;28;20254;-64
2023/09/16 06:25:07;;;;;;;6.32;4.65;;;23.00;84.80;;;;;;5049218;28;20147;-65
2023/09/16 06:27:36;;;;;;;6.95;4.45;;;23.00;81.90;;;;;;5022675;28;20045;-65
2023/09/16 06:30:03;;;;;;;6.30;4.65;;;23.00;82.20;;;;;;5039782;28;20045;-65
2023/09/16 06:32:29;;;;;;;7.50;4.50;;;23.20;84.60;;;;;;5046978;28;20160;-66
2023/09/16 06:34:56;;;;;;;6.78;4.00;;;23.30;82.20;;;;;;5055312;28;20049;-65
2023/09/16 06:37:23;;;;;;;6.85;4.72;;;23.50;82.00;;;;;;5001625;28;20557;-65
2023/09/16 06:39:49;;;;;;;6.65;4.78;;;23.60;84.80;;;;;;5034527;28;20159;-65
2023/09/16 06:42:15;;;;;;;9.35;4.95;;;23.70;84.10;;;;;;5015321;28;20045;-66
2023/09/16 06:44:49;;;;;;;5.60;3.60;;;23.40;81.50;;;;;;5055221;28;20552;-65
2023/09/16 06:47:19;;;;;;;6.18;4.00;;;23.80;80.80;;;;;;4997213;28;20041;-66
2023/09/16 06:49:48;;;;;;;5.30;3.72;;;23.90;83.40;;;;;;4998101;28;20054;-67
2023/09/16 06:52:14;;;;;;;5.15;3.45;;;24.10;81.30;;;;;;5032954;28;20117;-68
2023/09/16 06:54:41;;;;;;;5.22;3.00;;;22.10;79.30;;;;;;5028934;28;20052;-67
2023/09/16 06:57:07;;;;;;;5.60;3.85;;;24.20;80.20;;;;;;5018029;28;20096;-67
2023/09/16 06:59:34;;;;;;;5.30;3.20;;;24.40;80.20;;;;;;5031907;28;20037;-67
2023/09/16 07:02:00;;;;;;;5.05;3.40;;;24.20;83.00;;;;;;5000335;28;20047;-68
2023/09/16 07:04:26;;;;;;;6.28;3.45;;;24.30;80.30;;;;;;5022031;28;20092;-67
2023/09/16 07:06:53;;;;;;;5.22;3.40;;;24.50;80.20;;;;;;5034978;28;20124;-68
2023/09/16 07:09:19;;;;;;;5.20;3.47;;;24.50;79.80;;;;;;5035196;28;20041;-67
2023/09/16 07:11:45;;;;;;;5.88;3.38;;;24.60;79.90;;;;;;5017545;28;20033;-67
2023/09/16 07:14:15;;;;;;;5.30;3.55;;;24.80;82.10;;;;;;5000643;28;20126;-67
2023/09/16 07:16:41;;;;;;;4.80;3.33;;;24.40;79.00;;;;;;5004419;28;20041;-68
2023/09/16 07:19:09;;;;;;;4.97;3.47;;;24.80;79.50;;;;;;5026910;28;20037;-67
2023/09/16 07:21:35;;;;;;;5.18;3.40;;;25.00;80.00;;;;;;5000519;28;20057;-67
2023/09/16 07:24:02;;;;;;;5.82;3.42;;;25.10;79.50;;;;;;5026810;28;20041;-66
2023/09/16 07:26:29;;;;;;;5.05;3.40;;;24.80;79.20;;;;;;4996963;28;20426;-67
2023/09/16 07:28:55;;;;;;;7.68;3.70;;;25.10;79.30;;;;;;5040626;28;20515;-67
2023/09/16 07:31:21;;;;;;;5.38;3.55;;;25.30;79.30;;;;;;5005078;28;20096;-64
2023/09/16 07:33:47;;;;;;;5.13;3.25;;;25.40;78.80;;;;;;5035327;28;20041;-67
2023/09/16 07:36:13;;;;;;;5.85;3.85;;;25.80;79.50;;;;;;5036949;28;20052;-67
2023/09/16 07:38:39;;;;;;;5.40;3.28;;;25.50;79.20;;;;;;5016669;28;20124;-68
2023/09/16 07:41:05;;;;;;;5.53;3.72;;;25.50;78.80;;;;;;5000609;28;20042;-67
2023/09/16 07:43:31;;;;;;;5.93;3.38;;;24.70;78.00;;;;;;5016401;28;20079;-68
2023/09/16 07:45:59;;;;;;;5.60;3.60;;;25.30;78.50;;;;;;5009469;28;20056;-67
2023/09/16 07:48:25;;;;;;;5.30;3.55;;;25.50;78.00;;;;;;5039035;28;20052;-68
2023/09/16 07:50:51;;;;;;;6.13;3.50;;;25.40;81.20;;;;;;5038205;28;20151;-66
2023/09/16 07:53:17;;;;;;;7.07;3.65;;;25.70;78.30;;;;;;5055014;28;20115;-68
2023/09/16 07:55:44;;;;;;;5.80;3.47;;;25.60;78.10;;;;;;5048534;28;20040;-67
2023/09/16 07:58:10;;;;;;;6.50;3.60;;;25.50;78.00;;;;;;5035242;28;20045;-71
2023/09/16 08:00:36;;;;;;;5.30;3.53;;;25.90;78.10;;;;;;5036305;28;20132;-71
2023/09/16 08:03:02;;;;;;;7.15;4.68;;;25.80;77.80;;;;;;5065409;28;20139;-70
2023/09/16 08:05:29;;;;;;;8.63;6.25;;;25.60;77.60;;;;;;5034960;28;20055;-71
2023/09/16 08:07:58;;;;;;;9.52;7.25;;;25.80;77.90;;;;;;5019038;28;20132;-70
2023/09/16 08:10:25;;;;;;;8.77;7.13;;;23.70;75.20;;;;;;5036115;28;20486;-71
2023/09/16 08:12:51;;;;;;;7.65;6.47;;;26.30;76.80;;;;;;5030619;28;20045;-71
2023/09/16 08:15:17;;;;;;;8.75;6.00;;;25.80;77.60;;;;;;5045194;28;20052;-71
2023/09/16 08:17:43;;;;;;;8.65;7.20;;;25.30;77.70;;;;;;5047688;28;20037;-72
2023/09/16 08:20:11;;;;;;;9.57;7.35;;;25.60;77.70;;;;;;5025890;28;20037;-71
2023/09/16 08:22:41;;;;;;;10.10;7.85;;;25.60;76.50;;;;;;5046701;28;20122;-70
2023/09/16 08:25:11;;;;;;;8.23;7.18;;;25.40;77.00;;;;;;5034979;28;20155;-70
2023/09/16 08:27:37;;;;;;;10.65;7.85;;;25.30;77.60;;;;;;5079512;28;20040;-68
2023/09/16 08:30:03;;;;;;;9.30;7.28;;;25.70;78.10;;;;;;5072638;28;20048;-68
2023/09/16 08:32:32;;;;;;;9.60;7.35;;;25.40;77.90;;;;;;5067624;28;20078;-69
2023/09/16 08:35:00;;;;;;;9.40;6.25;;;25.50;78.30;;;;;;5044958;28;20076;-69
2023/09/16 08:37:29;;;;;;;8.93;6.85;;;25.50;78.00;;;;;;5061749;28;20047;-71
2023/09/16 08:39:55;;;;;;;8.13;6.05;;;25.80;77.80;;;;;;5032314;28;20064;-72
2023/09/16 08:42:35;;;;;;;7.97;6.75;;;25.30;78.40;;;;;;5048800;28;20541;-71
2023/09/16 08:45:05;;;;;;;9.55;7.00;;;25.10;77.00;;;;;;5038835;28;20486;-70
2023/09/16 08:47:38;;;;;;;10.25;7.00;;;25.00;78.10;;;;;;5053785;28;20101;-61
2023/09/16 08:50:06;;;;;;;10.73;6.80;;;25.10;78.80;;;;;;5049066;28;20495;-63
2023/09/16 08:52:53;;;;;;;9.90;6.88;;;25.00;78.20;;;;;;5060819;28;20045;-71
2023/09/16 08:55:19;;;;;;;10.05;6.32;;;25.10;78.90;;;;;;5052619;28;20033;-72
2023/09/16 08:57:54;;;;;;;9.90;7.03;;;25.00;78.40;;;;;;5053236;28;20094;-71
2023/09/16 09:00:20;;;;;;;9.07;6.45;;;25.40;79.40;;;;;;5034954;28;20068;-72
2023/09/16 09:02:47;;;;;;;9.23;6.40;;;23.10;77.60;;;;;;5067642;28;20044;-72
2023/09/16 09:05:12;;;;;;;9.63;6.55;;;25.30;79.00;;;;;;5040052;28;20139;-70
2023/09/16 09:07:40;;;;;;;8.50;6.35;;;25.30;79.30;;;;;;5053179;28;20127;-71
2023/09/16 09:10:06;;;;;;;10.88;9.38;;;25.20;79.20;;;;;;5068850;28;20127;-60
2023/09/16 09:12:36;;;;;;;53.80;13.98;;;25.00;78.50;;;;;;5052529;28;20493;-69
2023/09/16 09:15:04;;;;;;;34.35;10.15;;;24.90;78.80;;;;;;5005595;28;22131;-72
2023/09/16 09:17:40;;;;;;;37.53;10.52;;;25.30;79.00;;;;;;5019898;28;20033;-72
2023/09/16 09:20:09;;;;;;;20.13;9.73;;;24.80;79.40;;;;;;5056558;28;20102;-68
2023/09/16 09:22:47;;;;;;;20.98;8.27;;;25.10;79.20;;;;;;4999846;28;20040;-70
2023/09/16 09:25:25;;;;;;;20.08;8.05;;;22.90;77.60;;;;;;5050675;28;20064;-71
2023/09/16 09:27:51;;;;;;;17.50;10.75;;;25.00;79.70;;;;;;5044160;28;20048;-61
2023/09/16 09:30:24;;;;;;;13.75;8.02;;;24.90;79.80;;;;;;5044822;28;20056;-70
2023/09/16 09:32:50;;;;;;;14.45;7.43;;;24.80;79.70;;;;;;5049881;28;20045;-69
2023/09/16 09:35:17;;;;;;;15.23;7.38;;;24.80;79.70;;;;;;5026530;28;20128;-71
2023/09/16 09:37:43;;;;;;;12.38;7.28;;;24.90;79.00;;;;;;5040573;28;20036;-74
2023/09/16 09:40:10;;;;;;;11.82;6.93;;;25.00;79.50;;;;;;5065338;28;20448;-73
2023/09/16 09:42:46;;;;;;;11.90;6.18;;;24.90;79.70;;;;;;5057323;28;20112;-73
2023/09/16 09:45:13;;;;;;;10.68;5.57;;;25.00;78.40;;;;;;5086032;28;20087;-61
2023/09/16 09:47:39;;;;;;;14.23;5.60;;;24.90;79.70;;;;;;5053120;28;20053;-62
2023/09/16 09:50:07;;;;;;;11.13;5.20;;;25.10;79.40;;;;;;5034168;28;20104;-75
2023/09/16 09:52:34;;;;;;;8.50;5.10;;;25.40;78.70;;;;;;5047435;28;20059;-72
2023/09/16 09:55:01;;;;;;;12.00;5.47;;;25.40;79.60;;;;;;5054643;28;20040;-74
2023/09/16 09:57:27;;;;;;;8.48;4.68;;;25.40;79.60;;;;;;5041700;28;20052;-73
2023/09/16 09:59:55;;;;;;;8.32;4.63;;;25.20;79.10;;;;;;5052100;28;20073;-75
2023/09/16 10:02:27;;;;;;;7.95;4.72;;;25.20;79.60;;;;;;5067541;28;20053;-73
2023/09/16 10:04:56;;;;;;;;;;;25.10;79.30;;;;;;5060555;28;20485;-75
2023/09/16 10:07:23;;;;;;;8.75;4.75;;;25.30;79.80;;;;;;5061206;28;19947;-75
2023/09/16 10:09:49;;;;;;;7.25;4.90;;;25.40;79.10;;;;;;5051948;28;20466;-76
2023/09/16 10:12:16;;;;;;;8.70;4.80;;;25.30;78.90;;;;;;5050232;28;20087;-72
2023/09/16 10:14:42;;;;;;;10.98;4.72;;;25.70;79.20;;;;;;5033944;28;20044;-75
2023/09/16 10:17:08;;;;;;;10.50;5.28;;;25.20;79.20;;;;;;5058737;28;20060;-76
2023/09/16 10:19:34;;;;;;;12.02;4.85;;;25.40;79.60;;;;;;5035215;28;20135;-72
2023/09/16 10:22:00;;;;;;;15.38;5.97;;;26.10;80.60;;;;;;5043203;28;20045;-75
2023/09/16 10:24:28;;;;;;;9.23;4.78;;;25.50;79.40;;;;;;5036868;28;20052;-68
2023/09/16 10:26:55;;;;;;;10.65;4.50;;;25.30;79.80;;;;;;5017191;28;20048;-74
2023/09/16 10:29:21;;;;;;;10.65;4.35;;;25.90;79.90;;;;;;5017584;28;20096;-75
2023/09/16 10:31:47;;;;;;;9.55;4.55;;;26.10;80.80;;;;;;5054247;28;20045;-75
2023/09/16 10:34:13;;;;;;;10.93;4.20;;;25.70;79.80;;;;;;5021050;28;20111;-74
2023/09/16 10:36:40;;;;;;;6.18;4.18;;;25.60;79.40;;;;;;5037462;28;20033;-75
2023/09/16 10:39:06;;;;;;;7.40;4.13;;;25.80;79.30;;;;;;5014545;28;20080;-74
2023/09/16 10:41:33;;;;;;;7.45;4.15;;;25.70;78.50;;;;;;5040782;28;20048;-74
2023/09/16 10:43:59;;;;;;;8.63;3.75;;;25.50;79.00;;;;;;5057558;28;20383;-75
2023/09/16 10:46:25;;;;;;;6.70;3.90;;;25.80;79.30;;;;;;5075218;28;20050;-75
2023/09/16 10:48:51;;;;;;;7.07;4.00;;;25.60;79.00;;;;;;5024216;28;20546;-75
2023/09/16 10:51:23;;;;;;;6.47;3.90;;;25.50;79.10;;;;;;5053703;28;20492;-73
2023/09/16 10:54:03;;;;;;;7.20;4.03;;;25.70;79.80;;;;;;5057401;28;20048;-75
2023/09/16 10:56:35;;;;;;;7.00;3.72;;;25.80;78.20;;;;;;5043193;28;20489;-74
2023/09/16 10:59:10;;;;;;;8.10;3.90;;;26.00;79.40;;;;;;5075125;28;20090;-75
2023/09/16 11:01:47;;;;;;;6.82;3.80;;;25.70;79.50;;;;;;5063310;28;20036;-74
2023/09/16 11:04:19;;;;;;;6.93;3.88;;;25.60;79.60;;;;;;5052330;28;20044;-71
2023/09/16 11:06:50;;;;;;;5.70;3.70;;;25.30;78.90;;;;;;5055066;28;20071;-74
2023/09/16 11:09:24;;;;;;;6.53;3.75;;;25.70;79.00;;;;;;5057827;28;20057;-75
2023/09/16 11:11:50;;;;;;;6.47;3.45;;;25.70;79.00;;;;;;5070340;28;20128;-74
2023/09/16 11:14:16;;;;;;;6.85;3.95;;;25.80;78.90;;;;;;5055767;28;20045;-75
2023/09/16 11:16:50;;;;;;;5.30;3.50;;;25.90;78.90;;;;;;5037372;28;20417;-75
2023/09/16 11:19:24;;;;;;;5.32;3.30;;;25.70;77.70;;;;;;5061936;28;20040;-70
2023/09/16 11:21:51;;;;;;;5.32;3.30;;;25.80;79.30;;;;;;5056187;28;20044;-74
2023/09/16 11:24:17;;;;;;;6.40;3.97;;;25.80;78.80;;;;;;5056758;28;20114;-74
2023/09/16 11:26:47;;;;;;;5.35;3.63;;;25.90;78.80;;;;;;5074590;28;20051;-74
2023/09/16 11:29:23;;;;;;;7.60;3.60;;;26.10;78.90;;;;;;5054113;28;20085;-75
2023/09/16 11:31:50;;;;;;;6.07;3.80;;;26.00;77.50;;;;;;5066022;28;20036;-75
2023/09/16 11:34:20;;;;;;;4.97;3.03;;;26.10;78.80;;;;;;5074503;28;20051;-75
2023/09/16 11:36:54;;;;;;;5.28;3.30;;;26.10;81.50;;;;;;5074553;28;20052;-74
2023/09/16 11:39:23;;;;;;;6.28;3.70;;;25.90;78.60;;;;;;5054580;28;20079;-69
2023/09/16 11:41:49;;;;;;;6.25;3.40;;;26.20;78.40;;;;;;5036338;28;20095;-75
2023/09/16 11:44:15;;;;;;;5.90;3.70;;;26.20;78.90;;;;;;5054506;28;20041;-75
2023/09/16 11:46:43;;;;;;;6.45;3.72;;;27.00;79.20;;;;;;5037057;28;20494;-75
2023/09/16 11:49:12;;;;;;;5.28;3.70;;;26.20;78.60;;;;;;5037077;28;20406;-75
2023/09/16 11:51:38;;;;;;;4.88;3.10;;;26.10;78.60;;;;;;5050378;28;20512;-75
2023/09/16 11:54:04;;;;;;;4.88;3.45;;;26.00;77.70;;;;;;5072976;28;20053;-70
2023/09/16 11:56:33;;;;;;;4.43;3.25;;;26.30;77.20;;;;;;5056325;28;20048;-75
2023/09/16 11:58:59;;;;;;;5.10;3.42;;;26.30;78.50;;;;;;5055348;28;20047;-74
2023/09/16 12:01:30;;;;;;;5.68;3.17;;;26.20;78.00;;;;;;5055401;28;20045;-74
2023/09/16 12:03:56;;;;;;;5.20;3.40;;;26.10;78.10;;;;;;5036323;28;20049;-74
2023/09/16 12:06:25;;;;;;;5.18;3.65;;;26.30;78.10;;;;;;5072117;28;20044;-76
2023/09/16 12:08:55;;;;;;;5.22;3.40;;;26.40;78.20;;;;;;5074009;28;20052;-72
2023/09/16 12:11:23;;;;;;;5.20;3.53;;;26.30;76.70;;;;;;5074978;28;20053;-76
2023/09/16 12:13:49;;;;;;;6.20;3.60;;;26.50;78.40;;;;;;5068989;28;20076;-74
2023/09/16 12:16:15;;;;;;;5.20;3.40;;;26.40;78.00;;;;;;5021523;28;20094;-75
2023/09/16 12:18:43;;;;;;;4.65;3.10;;;26.40;78.10;;;;;;5073927;28;20563;-75
2023/09/16 12:21:10;;;;;;;4.85;3.40;;;26.30;78.10;;;;;;5069906;28;20048;-75
2023/09/16 12:23:36;;;;;;;5.70;3.13;;;26.40;77.70;;;;;;5055650;28;20059;-75
2023/09/16 12:26:02;;;;;;;5.28;3.20;;;26.50;78.10;;;;;;5020332;28;20063;-75
2023/09/16 12:28:28;;;;;;;5.65;3.13;;;26.30;78.00;;;;;;5018866;28;20206;-75
2023/09/16 12:30:57;;;;;;;4.63;3.15;;;26.50;78.10;;;;;;5068418;28;20456;-76
2023/09/16 12:33:45;;;;;;;5.72;3.33;;;26.20;78.10;;;;;;5065994;28;20045;-76
2023/09/16 12:36:22;;;;;;;5.60;3.40;;;26.40;78.20;;;;;;5005658;28;20048;-75
2023/09/16 12:38:48;;;;;;;5.18;2.97;;;26.50;78.50;;;;;;5066481;28;20036;-76
2023/09/16 12:41:14;;;;;;;5.18;3.25;;;26.30;77.80;;;;;;5037565;28;20409;-75
2023/09/16 12:43:41;;;;;;;5.72;3.33;;;26.30;77.80;;;;;;5072946;28;20045;-76
2023/09/16 12:46:08;;;;;;;5.18;3.33;;;26.50;78.30;;;;;;5072721;28;20091;-76
2023/09/16 12:48:34;;;;;;;5.15;3.20;;;26.30;77.70;;;;;;5038618;28;20112;-76
2023/09/16 12:51:01;;;;;;;4.28;2.80;;;26.30;78.40;;;;;;5037395;28;20135;-76
2023/09/16 12:53:27;;;;;;;5.30;3.22;;;26.30;77.80;;;;;;5070418;28;20036;-75